createdAt,value
2022-11-25T00:01:50.843Z,4.80
2022-11-25T00:04:39.224Z,4.85
2022-11-25T00:07:26.199Z,4.83
2022-11-25T00:10:13.149Z,4.82
2022-11-25T00:13:00.089Z,4.76
2022-11-25T00:15:47.008Z,4.78
2022-11-25T00:18:34.357Z,4.77
2022-11-25T00:21:24.137Z,4.75
2022-11-25T00:24:14.247Z,4.67
2022-11-25T00:27:04.903Z,4.67
2022-11-25T00:29:52.003Z,4.52
2022-11-25T00:32:39.005Z,4.22
2022-11-25T00:35:25.916Z,4.12
2022-11-25T00:38:12.882Z,4.06
2022-11-25T00:41:18.632Z,4.02
2022-11-25T00:44:24.259Z,3.98
2022-11-25T00:47:16.475Z,3.92
2022-11-25T00:50:03.893Z,3.86
2022-11-25T00:52:50.828Z,3.81
2022-11-25T00:55:57.724Z,3.79
2022-11-25T00:58:45.908Z,3.75
2022-11-25T01:01:33.300Z,3.78
2022-11-25T01:04:20.342Z,3.77
2022-11-25T01:07:07.612Z,3.70
2022-11-25T01:09:54.585Z,3.71
2022-11-25T01:12:41.511Z,3.73
2022-11-25T01:15:28.397Z,3.72
2022-11-25T01:18:15.499Z,3.66
2022-11-25T01:21:23.007Z,3.80
2022-11-25T01:24:12.115Z,3.79
2022-11-25T01:26:59.042Z,3.76
2022-11-25T01:29:46.162Z,3.67
2022-11-25T01:32:33.263Z,3.47
2022-11-25T01:35:20.235Z,3.30
2022-11-25T01:38:07.148Z,3.24
2022-11-25T01:40:54.075Z,3.13
2022-11-25T01:43:41.738Z,3.06
2022-11-25T01:46:37.671Z,3.03
2022-11-25T01:49:42.253Z,3.06
2022-11-25T01:52:35.602Z,3.04
2022-11-25T01:55:26.959Z,3.05
2022-11-25T01:58:21.381Z,2.95
2022-11-25T02:01:08.504Z,2.97
2022-11-25T02:03:58.228Z,3.01
2022-11-25T02:06:54.169Z,3.00
2022-11-25T02:09:43.643Z,3.06
2022-11-25T02:12:31.872Z,3.14
2022-11-25T02:15:19.171Z,3.10
2022-11-25T02:18:06.872Z,3.05
2022-11-25T02:20:54.049Z,2.97
2022-11-25T02:23:53.720Z,2.99
2022-11-25T02:26:40.844Z,3.01
2022-11-25T02:29:28.280Z,2.86
2022-11-25T02:32:15.432Z,2.81
2022-11-25T02:35:02.532Z,2.77
2022-11-25T02:37:49.523Z,2.72
2022-11-25T02:40:58.069Z,2.71
2022-11-25T02:43:45.155Z,2.75
2022-11-25T02:46:32.489Z,2.75
2022-11-25T02:49:19.452Z,2.76
2022-11-25T02:52:06.375Z,2.77
2022-11-25T02:54:53.315Z,2.76
2022-11-25T02:57:40.182Z,2.80
2022-11-25T03:00:27.298Z,2.81
2022-11-25T03:03:14.657Z,2.82
2022-11-25T03:06:02.143Z,2.85
2022-11-25T03:08:49.501Z,2.86
2022-11-25T03:11:54.986Z,2.78
2022-11-25T03:14:41.893Z,2.69
2022-11-25T03:17:28.873Z,2.71
2022-11-25T03:20:16.128Z,2.58
2022-11-25T03:23:04.267Z,2.57
2022-11-25T03:25:51.239Z,2.62
2022-11-25T03:28:38.211Z,2.57
2022-11-25T03:31:25.150Z,2.53
2022-11-25T03:34:12.681Z,2.46
2022-11-25T03:36:59.853Z,2.44
2022-11-25T03:39:46.884Z,2.57
2022-11-25T03:42:33.873Z,2.60
2022-11-25T03:45:21.136Z,2.64
2022-11-25T03:48:08.064Z,2.64
2022-11-25T03:50:55.007Z,2.67
2022-11-25T03:53:41.936Z,2.56
2022-11-25T03:56:28.966Z,2.44
2022-11-25T03:59:15.914Z,2.47
2022-11-25T04:02:03.015Z,2.41
2022-11-25T04:04:50.104Z,2.30
2022-11-25T04:07:37.125Z,2.23
2022-11-25T04:10:24.134Z,2.16
2022-11-25T04:13:11.112Z,2.18
2022-11-25T04:15:58.212Z,2.15
2022-11-25T04:18:45.127Z,2.14
2022-11-25T04:21:32.032Z,2.12
2022-11-25T04:24:19.788Z,2.13
2022-11-25T04:27:06.888Z,2.29
2022-11-25T04:29:53.864Z,2.20
2022-11-25T04:32:40.831Z,2.21
2022-11-25T04:35:27.893Z,2.23
2022-11-25T04:38:14.956Z,2.15
2022-11-25T04:41:02.048Z,2.14
2022-11-25T04:43:48.968Z,2.15
2022-11-25T04:46:41.300Z,2.17
2022-11-25T04:49:28.199Z,2.20
2022-11-25T04:52:15.060Z,2.08
2022-11-25T04:55:01.945Z,2.02
2022-11-25T04:57:48.821Z,2.04
2022-11-25T05:00:35.732Z,2.04
2022-11-25T05:03:22.661Z,1.99
2022-11-25T05:06:09.973Z,1.90
2022-11-25T05:08:56.860Z,1.84
2022-11-25T05:11:43.763Z,1.87
2022-11-25T05:14:30.832Z,1.88
2022-11-25T05:17:23.261Z,1.95
2022-11-25T05:20:10.879Z,2.04
2022-11-25T05:22:57.743Z,2.02
2022-11-25T05:25:44.701Z,1.99
2022-11-25T05:28:32.517Z,1.98
2022-11-25T05:31:19.414Z,1.91
2022-11-25T05:34:06.516Z,1.92
2022-11-25T05:36:53.685Z,1.86
2022-11-25T05:39:40.584Z,1.87
2022-11-25T05:42:29.731Z,1.81
2022-11-25T05:45:16.731Z,1.77
2022-11-25T05:48:03.748Z,1.68
2022-11-25T05:50:50.765Z,1.69
2022-11-25T05:53:37.930Z,1.70
2022-11-25T05:56:24.955Z,1.66
2022-11-25T05:59:11.924Z,1.78
2022-11-25T06:01:58.949Z,1.71
2022-11-25T06:04:45.952Z,1.63
2022-11-25T06:07:32.901Z,1.52
2022-11-25T06:10:20.226Z,1.51
2022-11-25T06:13:08.312Z,1.49
2022-11-25T06:15:55.309Z,1.28
2022-11-25T06:18:42.946Z,1.18
2022-11-25T06:21:30.272Z,1.08
2022-11-25T06:24:17.768Z,1.11
2022-11-25T06:27:04.800Z,1.11
2022-11-25T06:29:51.777Z,1.09
2022-11-25T06:32:38.728Z,1.14
2022-11-25T06:35:25.624Z,1.10
2022-11-25T06:38:12.544Z,0.97
2022-11-25T06:41:03.888Z,0.90
2022-11-25T06:43:51.077Z,0.92
2022-11-25T06:46:38.219Z,0.94
2022-11-25T06:49:25.241Z,0.97
2022-11-25T06:52:12.132Z,0.99
2022-11-25T06:54:59.061Z,1.02
2022-11-25T06:57:45.939Z,1.04
2022-11-25T07:00:32.876Z,1.14
2022-11-25T07:03:19.763Z,1.08
2022-11-25T07:06:07.402Z,1.07
2022-11-25T07:08:54.544Z,1.08
2022-11-25T07:11:41.580Z,1.09
2022-11-25T07:14:28.520Z,1.09
2022-11-25T07:17:15.528Z,1.05
2022-11-25T07:20:02.468Z,0.86
2022-11-25T07:22:49.443Z,0.81
2022-11-25T07:25:36.469Z,0.80
2022-11-25T07:28:23.419Z,0.77
2022-11-25T07:31:27.240Z,0.83
2022-11-25T07:34:18.201Z,0.77
2022-11-25T07:37:05.127Z,0.85
2022-11-25T07:39:52.240Z,0.78
2022-11-25T07:42:39.175Z,0.62
2022-11-25T07:45:27.071Z,0.44
2022-11-25T07:48:13.939Z,0.48
2022-11-25T07:51:00.888Z,0.42
2022-11-25T07:53:49.283Z,0.40
2022-11-25T07:56:38.311Z,0.42
2022-11-25T07:59:25.470Z,0.43
2022-11-25T08:02:12.559Z,0.49
2022-11-25T08:04:59.485Z,0.60
2022-11-25T08:07:46.475Z,0.61
2022-11-25T08:10:33.460Z,0.63
2022-11-25T08:13:20.452Z,0.42
2022-11-25T08:16:08.224Z,0.35
2022-11-25T08:18:55.685Z,0.46
2022-11-25T08:21:42.943Z,0.34
2022-11-25T08:24:29.880Z,0.36
2022-11-25T08:27:16.969Z,0.32
2022-11-25T08:30:04.498Z,0.39
2022-11-25T08:32:51.892Z,0.56
2022-11-25T08:35:39.216Z,0.64
2022-11-25T08:38:26.755Z,0.86
2022-11-25T08:41:19.556Z,0.94
2022-11-25T08:44:08.519Z,0.94
2022-11-25T08:46:55.667Z,1.03
2022-11-25T08:49:43.196Z,1.05
2022-11-25T08:52:30.559Z,1.07
2022-11-25T08:55:17.588Z,1.23
2022-11-25T08:58:04.749Z,1.37
2022-11-25T09:00:51.682Z,1.51
2022-11-25T09:03:41.685Z,1.66
2022-11-25T09:06:29.372Z,1.75
2022-11-25T09:09:16.425Z,1.88
2022-11-25T09:12:03.590Z,1.93
2022-11-25T09:14:50.551Z,1.97
2022-11-25T09:17:37.575Z,2.04
2022-11-25T09:20:24.565Z,2.11
2022-11-25T09:23:11.487Z,2.09
2022-11-25T09:25:58.943Z,2.27
2022-11-25T09:28:45.880Z,2.36
2022-11-25T09:31:32.851Z,2.50
2022-11-25T09:34:19.792Z,2.64
2022-11-25T09:37:06.752Z,2.82
2022-11-25T09:39:56.103Z,3.07
2022-11-25T09:43:20.790Z,3.13
2022-11-25T09:46:50.067Z,3.29
2022-11-25T09:50:09.873Z,3.16
2022-11-25T09:53:19.710Z,3.26
2022-11-25T09:56:14.818Z,3.34
2022-11-25T09:59:18.238Z,3.31
2022-11-25T10:02:17.862Z,3.37
2022-11-25T10:05:34.486Z,3.43
2022-11-25T10:08:25.286Z,3.47
2022-11-25T10:11:41.948Z,3.48
2022-11-25T10:14:45.311Z,3.47
2022-11-25T10:17:54.095Z,3.47
2022-11-25T10:20:42.486Z,3.43
2022-11-25T10:23:35.235Z,3.44
2022-11-25T10:26:34.679Z,3.44
2022-11-25T10:29:27.652Z,3.45
2022-11-25T10:32:23.638Z,3.48
2022-11-25T10:35:23.836Z,3.55
2022-11-25T10:38:20.209Z,3.66
2022-11-25T10:41:07.386Z,3.74
2022-11-25T10:43:54.508Z,4.00
2022-11-25T10:47:13.544Z,4.05
2022-11-25T10:50:16.188Z,4.05
2022-11-25T10:53:13.236Z,3.94
2022-11-25T10:56:12.527Z,3.64
2022-11-25T10:59:13.778Z,3.54
2022-11-25T11:02:22.896Z,3.63
2022-11-25T11:05:31.114Z,3.57
2022-11-25T11:08:24.592Z,3.58
2022-11-25T11:11:47.264Z,3.52
2022-11-25T11:14:34.864Z,3.53
2022-11-25T11:17:37.187Z,3.62
2022-11-25T11:20:30.031Z,3.52
2022-11-25T11:23:17.658Z,3.58
2022-11-25T11:26:06.728Z,3.65
2022-11-25T11:29:02.653Z,3.77
2022-11-25T11:31:58.590Z,4.04
2022-11-25T11:35:18.263Z,3.95
2022-11-25T11:38:30.079Z,3.95
2022-11-25T11:41:34.805Z,4.08
2022-11-25T11:45:08.143Z,4.31
2022-11-25T11:48:31.879Z,4.29
2022-11-25T11:52:02.113Z,4.32
2022-11-25T11:55:12.180Z,4.37
2022-11-25T11:58:31.141Z,4.38
2022-11-25T12:05:17.613Z,4.20
2022-11-25T12:11:43.681Z,4.17
2022-11-25T12:14:46.612Z,4.32
2022-11-25T12:17:51.955Z,4.45
2022-11-25T12:20:47.742Z,4.52
2022-11-25T12:24:14.488Z,4.55
2022-11-25T12:27:15.624Z,4.58
2022-11-25T12:30:13.903Z,4.55
2022-11-25T12:33:10.735Z,4.66
2022-11-25T12:36:16.748Z,4.67
2022-11-25T12:39:24.098Z,4.74
2022-11-25T12:42:20.560Z,4.98
2022-11-25T12:45:16.153Z,4.97
2022-11-25T12:48:03.593Z,5.04
2022-11-25T12:51:20.042Z,4.86
2022-11-25T12:54:48.303Z,4.89
2022-11-25T12:57:59.505Z,5.00
2022-11-25T13:01:07.087Z,5.01
2022-11-25T13:04:15.562Z,4.90
2022-11-25T13:07:27.438Z,4.91
2022-11-25T13:10:43.331Z,5.05
2022-11-25T13:13:58.531Z,5.07
2022-11-25T13:16:48.633Z,4.92
2022-11-25T13:19:37.264Z,4.98
2022-11-25T13:22:29.816Z,5.05
2022-11-25T13:25:26.137Z,5.07
2022-11-25T13:28:34.601Z,5.12
2022-11-25T13:31:34.489Z,5.17
2022-11-25T13:34:41.603Z,5.14
2022-11-25T13:37:37.062Z,5.17
2022-11-25T13:40:23.996Z,5.18
2022-11-25T13:43:23.316Z,5.19
2022-11-25T13:46:53.156Z,4.95
2022-11-25T13:49:52.977Z,4.97
2022-11-25T13:52:43.454Z,4.98
2022-11-25T13:55:42.087Z,5.01
2022-11-25T13:58:33.118Z,5.02
2022-11-25T14:01:29.476Z,5.07
2022-11-25T14:04:24.334Z,4.95
2022-11-25T14:07:30.373Z,4.88
2022-11-25T14:10:45.008Z,4.81
2022-11-25T14:13:56.695Z,4.59
2022-11-25T14:17:18.732Z,4.51
2022-11-25T14:20:24.947Z,4.58
2022-11-25T14:23:47.072Z,4.52
2022-11-25T14:26:49.785Z,4.43
2022-11-25T14:29:55.160Z,4.46
2022-11-25T14:32:57.639Z,4.38
2022-11-25T14:35:53.947Z,4.41
2022-11-25T14:38:49.263Z,4.42
2022-11-25T14:41:58.199Z,4.34
2022-11-25T14:44:49.369Z,4.33
2022-11-25T14:47:39.422Z,4.24
2022-11-25T14:50:34.641Z,4.33
2022-11-25T14:53:23.841Z,4.28
2022-11-25T14:56:12.946Z,4.19
2022-11-25T14:59:01.155Z,4.19
2022-11-25T15:01:54.111Z,4.13
2022-11-25T15:04:41.608Z,4.02
2022-11-25T15:07:31.282Z,4.04
2022-11-25T15:10:42.458Z,4.02
2022-11-25T15:13:39.405Z,4.10
2022-11-25T15:16:33.668Z,4.04
2022-11-25T15:19:25.303Z,4.05
2022-11-25T15:22:23.389Z,3.99
2022-11-25T15:25:15.352Z,3.90
2022-11-25T15:28:02.496Z,3.90
2022-11-25T15:30:57.720Z,3.88
2022-11-25T15:33:45.080Z,3.84
2022-11-25T15:36:32.104Z,3.73
2022-11-25T15:39:27.768Z,3.71
2022-11-25T15:42:21.968Z,3.66
2022-11-25T15:45:20.239Z,3.65
2022-11-25T15:48:12.482Z,3.63
2022-11-25T15:51:21.220Z,3.55
2022-11-25T15:54:19.208Z,3.51
2022-11-25T15:57:34.824Z,3.44
2022-11-25T16:00:23.305Z,3.31
2022-11-25T16:03:20.001Z,3.35
2022-11-25T16:06:26.904Z,3.11
2022-11-25T16:09:20.874Z,3.07
2022-11-25T16:12:17.707Z,3.11
2022-11-25T16:15:05.186Z,3.21
2022-11-25T16:17:56.736Z,3.19
2022-11-25T16:20:56.863Z,3.21
2022-11-25T16:23:55.018Z,3.21
2022-11-25T16:26:56.646Z,3.20
2022-11-25T16:30:17.549Z,3.29
2022-11-25T16:33:09.825Z,3.37
2022-11-25T16:35:56.713Z,3.35
2022-11-25T16:38:43.709Z,3.33
2022-11-25T16:41:31.247Z,3.40
2022-11-25T16:44:21.381Z,3.28
2022-11-25T16:47:10.671Z,3.29
2022-11-25T16:49:57.617Z,3.31
2022-11-25T16:52:45.029Z,3.34
2022-11-25T16:55:32.145Z,3.40
2022-11-25T16:58:22.719Z,3.43
2022-11-25T17:01:14.576Z,3.38
2022-11-25T17:04:01.526Z,3.47
2022-11-25T17:07:16.519Z,3.49
2022-11-25T17:09:55.688Z,3.47
2022-11-25T17:12:44.769Z,3.40
2022-11-25T17:15:36.874Z,3.50
2022-11-25T17:18:30.977Z,3.48
2022-11-25T17:21:17.996Z,3.41
2022-11-25T17:24:17.372Z,3.26
2022-11-25T17:27:05.728Z,3.29
2022-11-25T17:29:54.343Z,3.19
2022-11-25T17:32:41.265Z,3.24
2022-11-25T17:35:28.222Z,3.14
2022-11-25T17:38:20.077Z,3.16
2022-11-25T17:41:14.500Z,3.02
2022-11-25T17:44:01.411Z,2.99
2022-11-25T17:46:48.407Z,2.99
2022-11-25T17:49:35.321Z,2.95
2022-11-25T17:52:22.242Z,2.96
2022-11-25T17:55:09.817Z,2.96
2022-11-25T17:57:57.083Z,3.01
2022-11-25T18:00:44.915Z,3.06
2022-11-25T18:03:31.814Z,3.24
2022-11-25T18:06:19.053Z,3.25
2022-11-25T18:09:06.330Z,3.23
2022-11-25T18:11:56.348Z,3.21
2022-11-25T18:14:44.746Z,3.25
2022-11-25T18:17:31.648Z,3.28
2022-11-25T18:20:26.057Z,3.21
2022-11-25T18:23:12.954Z,3.14
2022-11-25T18:26:01.934Z,3.04
2022-11-25T18:28:48.912Z,3.15
2022-11-25T18:31:35.886Z,3.17
2022-11-25T18:34:24.610Z,3.08
2022-11-25T18:37:12.287Z,3.08
2022-11-25T18:39:59.176Z,3.12
2022-11-25T18:42:50.272Z,3.10
2022-11-25T18:45:38.704Z,3.14
2022-11-25T18:48:26.863Z,3.14
2022-11-25T18:51:14.929Z,3.25
2022-11-25T18:54:01.858Z,3.24
2022-11-25T18:56:52.133Z,3.16
2022-11-25T18:59:39.465Z,3.24
2022-11-25T19:02:26.604Z,3.31
2022-11-25T19:05:18.920Z,3.37
2022-11-25T19:08:05.765Z,3.40
2022-11-25T19:10:52.864Z,3.39
2022-11-25T19:13:39.840Z,3.42
2022-11-25T19:16:28.033Z,3.42
2022-11-25T19:19:17.146Z,3.35
2022-11-25T19:22:11.367Z,3.33
2022-11-25T19:24:59.220Z,3.33
2022-11-25T19:27:54.240Z,3.43
2022-11-25T19:30:41.315Z,3.42
2022-11-25T19:33:32.833Z,3.41
2022-11-25T19:36:25.518Z,3.42
2022-11-25T19:39:16.944Z,3.41
2022-11-25T19:42:03.961Z,3.54
2022-11-25T19:44:50.949Z,3.53
2022-11-25T19:47:37.965Z,3.50
2022-11-25T19:50:28.309Z,3.54
2022-11-25T19:53:21.675Z,3.51
2022-11-25T19:56:16.494Z,3.51
2022-11-25T19:59:03.617Z,3.55
2022-11-25T20:01:50.858Z,3.50
2022-11-25T20:04:40.844Z,3.46
2022-11-25T20:07:29.513Z,3.43
2022-11-25T20:10:22.843Z,3.54
2022-11-25T20:13:09.932Z,3.56
2022-11-25T20:15:58.564Z,3.58
2022-11-25T20:18:46.253Z,3.59
2022-11-25T20:21:40.591Z,3.59
2022-11-25T20:24:27.576Z,3.70
2022-11-25T20:27:15.251Z,3.77
2022-11-25T20:30:02.724Z,3.78
2022-11-25T20:32:49.704Z,3.79
2022-11-25T20:35:36.975Z,3.85
2022-11-25T20:38:26.522Z,3.85
2022-11-25T20:41:14.446Z,3.81
2022-11-25T20:44:01.446Z,3.88
2022-11-25T20:46:48.360Z,3.99
2022-11-25T20:49:35.607Z,4.03
2022-11-25T20:52:31.301Z,4.12
2022-11-25T20:55:23.521Z,4.09
2022-11-25T20:58:20.537Z,4.19
2022-11-25T21:01:07.866Z,4.24
2022-11-25T21:03:55.009Z,4.20
2022-11-25T21:06:41.935Z,4.23
2022-11-25T21:09:32.690Z,4.29
2022-11-25T21:12:19.865Z,4.25
2022-11-25T21:15:18.507Z,4.41
2022-11-25T21:18:05.605Z,4.38
2022-11-25T21:20:55.382Z,4.36
2022-11-25T21:23:43.681Z,4.42
2022-11-25T21:26:31.976Z,4.45
2022-11-25T21:29:18.957Z,4.37
2022-11-25T21:32:21.717Z,4.42
2022-11-25T21:35:11.042Z,4.45
2022-11-25T21:37:58.919Z,4.34
2022-11-25T21:40:49.138Z,4.29
2022-11-25T21:43:43.814Z,4.28
2022-11-25T21:46:30.735Z,4.36
2022-11-25T21:49:17.702Z,4.40
2022-11-25T21:52:04.851Z,4.32
2022-11-25T21:54:51.845Z,4.34
2022-11-25T21:57:39.287Z,4.26
2022-11-25T22:00:26.482Z,4.27
2022-11-25T22:03:18.142Z,4.20
2022-11-25T22:06:30.047Z,4.20
2022-11-25T22:09:17.471Z,4.21
2022-11-25T22:12:05.300Z,4.17
2022-11-25T22:14:52.600Z,4.13
2022-11-25T22:17:39.710Z,4.14
2022-11-25T22:20:40.429Z,4.20
2022-11-25T22:23:27.939Z,4.19
2022-11-25T22:26:19.675Z,4.20
2022-11-25T22:29:13.306Z,4.27
2022-11-25T22:32:00.596Z,4.29
2022-11-25T22:34:47.580Z,4.30
2022-11-25T22:37:34.960Z,4.30
2022-11-25T22:40:23.625Z,4.42
2022-11-25T22:43:18.085Z,4.39
2022-11-25T22:46:05.443Z,4.39
2022-11-25T22:48:52.432Z,4.45
2022-11-25T22:51:39.379Z,4.51
2022-11-25T22:54:26.399Z,4.51
2022-11-25T22:57:13.374Z,4.55
2022-11-25T23:00:00.320Z,4.61
2022-11-25T23:02:48.839Z,4.68
2022-11-25T23:05:37.290Z,4.68
2022-11-25T23:08:27.086Z,4.73
2022-11-25T23:11:17.577Z,4.81
2022-11-25T23:14:04.499Z,4.79
2022-11-25T23:16:51.733Z,4.79
2022-11-25T23:19:38.757Z,4.75
2022-11-25T23:22:25.662Z,4.77
2022-11-25T23:25:14.932Z,4.77
2022-11-25T23:28:01.855Z,4.82
2022-11-25T23:30:57.083Z,4.78
2022-11-25T23:33:46.699Z,4.89
2022-11-25T23:36:46.373Z,4.97
2022-11-25T23:39:33.446Z,4.98
2022-11-25T23:42:21.024Z,4.95
2022-11-25T23:45:12.673Z,4.91
2022-11-25T23:47:59.588Z,4.96
2022-11-25T23:50:47.248Z,4.98
2022-11-25T23:53:37.876Z,4.97
2022-11-25T23:56:26.962Z,4.98
2022-11-25T23:59:14.944Z,5.05
